sensor_id;sensor_type;location;lat;lon;timestamp;temperature;humidity
41310;DHT22;27057;51.438;-0.010;2023-03-03T00:01:51;6.20;99.90
41310;DHT22;27057;51.438;-0.010;2023-03-03T00:04:18;7.90;99.90
41310;DHT22;27057;51.438;-0.010;2023-03-03T00:09:13;6.30;99.90
41310;DHT22;27057;51.438;-0.010;2023-03-03T00:11:41;6.50;99.90
41310;DHT22;27057;51.438;-0.010;2023-03-03T00:14:28;6.80;99.90
41310;DHT22;27057;51.438;-0.010;2023-03-03T00:16:56;6.60;99.90
41310;DHT22;27057;51.438;-0.010;2023-03-03T00:19:26;6.60;99.90
41310;DHT22;27057;51.438;-0.010;2023-03-03T00:21:54;6.30;99.90
41310;DHT22;27057;51.438;-0.010;2023-03-03T00:24:31;6.30;99.90
41310;DHT22;27057;51.438;-0.010;2023-03-03T00:27:15;6.40;99.90
41310;DHT22;27057;51.438;-0.010;2023-03-03T00:29:49;6.70;99.90
41310;DHT22;27057;51.438;-0.010;2023-03-03T00:32:25;7.70;99.90
41310;DHT22;27057;51.438;-0.010;2023-03-03T00:34:55;6.80;99.90
41310;DHT22;27057;51.438;-0.010;2023-03-03T00:37:34;6.20;99.90
41310;DHT22;27057;51.438;-0.010;2023-03-03T00:40:22;6.90;99.90
41310;DHT22;27057;51.438;-0.010;2023-03-03T00:42:53;6.40;99.90
41310;DHT22;27057;51.438;-0.010;2023-03-03T00:45:37;6.60;99.90
41310;DHT22;27057;51.438;-0.010;2023-03-03T00:50:48;6.90;99.90
41310;DHT22;27057;51.438;-0.010;2023-03-03T00:53:17;6.50;99.90
41310;DHT22;27057;51.438;-0.010;2023-03-03T00:55:46;6.40;99.90
41310;DHT22;27057;51.438;-0.010;2023-03-03T00:58:14;6.90;99.90
41310;DHT22;27057;51.438;-0.010;2023-03-03T01:00:45;6.60;99.90
41310;DHT22;27057;51.438;-0.010;2023-03-03T01:03:22;6.70;99.90
41310;DHT22;27057;51.438;-0.010;2023-03-03T01:05:52;6.50;99.90
41310;DHT22;27057;51.438;-0.010;2023-03-03T01:08:20;7.60;99.90
41310;DHT22;27057;51.438;-0.010;2023-03-03T01:10:50;6.50;99.90
41310;DHT22;27057;51.438;-0.010;2023-03-03T01:13:24;7.50;99.90
41310;DHT22;27057;51.438;-0.010;2023-03-03T01:15:53;6.40;99.90
41310;DHT22;27057;51.438;-0.010;2023-03-03T01:18:20;6.50;99.90
41310;DHT22;27057;51.438;-0.010;2023-03-03T01:23:17;6.80;99.90
41310;DHT22;27057;51.438;-0.010;2023-03-03T01:25:44;6.70;99.90
41310;DHT22;27057;51.438;-0.010;2023-03-03T01:28:12;6.40;99.90
41310;DHT22;27057;51.438;-0.010;2023-03-03T01:30:39;6.60;99.90
41310;DHT22;27057;51.438;-0.010;2023-03-03T01:33:06;6.60;99.90
41310;DHT22;27057;51.438;-0.010;2023-03-03T01:35:34;6.50;99.90
41310;DHT22;27057;51.438;-0.010;2023-03-03T01:38:03;6.50;99.90
41310;DHT22;27057;51.438;-0.010;2023-03-03T01:40:30;6.60;99.90
41310;DHT22;27057;51.438;-0.010;2023-03-03T01:42:59;6.70;99.90
41310;DHT22;27057;51.438;-0.010;2023-03-03T01:48:39;6.50;99.90
41310;DHT22;27057;51.438;-0.010;2023-03-03T01:53:50;6.50;99.90
41310;DHT22;27057;51.438;-0.010;2023-03-03T01:56:18;7.00;99.90
41310;DHT22;27057;51.438;-0.010;2023-03-03T01:59:15;7.50;99.90
41310;DHT22;27057;51.438;-0.010;2023-03-03T02:01:41;6.30;99.90
41310;DHT22;27057;51.438;-0.010;2023-03-03T02:04:08;5.40;99.90
41310;DHT22;27057;51.438;-0.010;2023-03-03T02:06:41;6.30;99.90
41310;DHT22;27057;51.438;-0.010;2023-03-03T02:09:19;6.20;99.90
41310;DHT22;27057;51.438;-0.010;2023-03-03T02:11:50;6.20;99.90
41310;DHT22;27057;51.438;-0.010;2023-03-03T02:14:18;6.30;99.90
41310;DHT22;27057;51.438;-0.010;2023-03-03T02:16:46;6.30;99.90
41310;DHT22;27057;51.438;-0.010;2023-03-03T02:19:32;6.40;99.90
41310;DHT22;27057;51.438;-0.010;2023-03-03T02:22:01;6.10;99.90
41310;DHT22;27057;51.438;-0.010;2023-03-03T02:24:34;6.70;99.90
41310;DHT22;27057;51.438;-0.010;2023-03-03T02:27:05;6.40;99.90
41310;DHT22;27057;51.438;-0.010;2023-03-03T02:29:32;6.30;99.90
41310;DHT22;27057;51.438;-0.010;2023-03-03T02:32:00;6.20;99.90
41310;DHT22;27057;51.438;-0.010;2023-03-03T02:34:28;6.40;99.90
41310;DHT22;27057;51.438;-0.010;2023-03-03T02:36:55;6.40;99.90
41310;DHT22;27057;51.438;-0.010;2023-03-03T02:39:24;6.40;99.90
41310;DHT22;27057;51.438;-0.010;2023-03-03T02:44:45;6.30;99.90
41310;DHT22;27057;51.438;-0.010;2023-03-03T02:47:13;6.40;99.90
41310;DHT22;27057;51.438;-0.010;2023-03-03T02:49:40;6.30;99.90
41310;DHT22;27057;51.438;-0.010;2023-03-03T02:52:10;6.60;99.90
41310;DHT22;27057;51.438;-0.010;2023-03-03T02:54:40;6.20;99.90
41310;DHT22;27057;51.438;-0.010;2023-03-03T02:57:08;6.20;99.90
41310;DHT22;27057;51.438;-0.010;2023-03-03T02:59:35;6.30;99.90
41310;DHT22;27057;51.438;-0.010;2023-03-03T03:02:20;6.50;99.90
41310;DHT22;27057;51.438;-0.010;2023-03-03T03:04:48;6.30;99.90
41310;DHT22;27057;51.438;-0.010;2023-03-03T03:07:20;7.30;99.90
41310;DHT22;27057;51.438;-0.010;2023-03-03T03:09:48;6.10;99.90
41310;DHT22;27057;51.438;-0.010;2023-03-03T03:12:15;6.20;99.90
41310;DHT22;27057;51.438;-0.010;2023-03-03T03:14:47;6.10;99.90
41310;DHT22;27057;51.438;-0.010;2023-03-03T03:17:14;6.00;99.90
41310;DHT22;27057;51.438;-0.010;2023-03-03T03:19:42;6.20;99.90
41310;DHT22;27057;51.438;-0.010;2023-03-03T03:22:10;6.20;99.90
41310;DHT22;27057;51.438;-0.010;2023-03-03T03:24:37;6.20;99.90
41310;DHT22;27057;51.438;-0.010;2023-03-03T03:27:07;6.30;99.90
41310;DHT22;27057;51.438;-0.010;2023-03-03T03:29:35;6.20;99.90
41310;DHT22;27057;51.438;-0.010;2023-03-03T03:32:03;6.10;99.90
41310;DHT22;27057;51.438;-0.010;2023-03-03T03:34:31;6.70;99.90
41310;DHT22;27057;51.438;-0.010;2023-03-03T03:39:27;6.30;99.90
41310;DHT22;27057;51.438;-0.010;2023-03-03T03:41:56;6.10;99.90
41310;DHT22;27057;51.438;-0.010;2023-03-03T03:44:23;6.10;99.90
41310;DHT22;27057;51.438;-0.010;2023-03-03T03:46:51;6.10;99.90
41310;DHT22;27057;51.438;-0.010;2023-03-03T03:49:19;6.10;99.90
41310;DHT22;27057;51.438;-0.010;2023-03-03T03:51:49;6.20;99.90
41310;DHT22;27057;51.438;-0.010;2023-03-03T03:54:20;6.00;99.90
41310;DHT22;27057;51.438;-0.010;2023-03-03T03:56:48;6.00;99.90
41310;DHT22;27057;51.438;-0.010;2023-03-03T03:59:16;6.20;99.90
41310;DHT22;27057;51.438;-0.010;2023-03-03T04:01:43;6.30;99.90
41310;DHT22;27057;51.438;-0.010;2023-03-03T04:04:11;6.20;99.90
41310;DHT22;27057;51.438;-0.010;2023-03-03T04:06:38;5.70;99.90
41310;DHT22;27057;51.438;-0.010;2023-03-03T04:14:04;6.00;99.90
41310;DHT22;27057;51.438;-0.010;2023-03-03T04:16:33;6.30;99.90
41310;DHT22;27057;51.438;-0.010;2023-03-03T04:19:02;6.00;99.90
41310;DHT22;27057;51.438;-0.010;2023-03-03T04:21:32;6.10;99.90
41310;DHT22;27057;51.438;-0.010;2023-03-03T04:23:59;6.40;99.90
41310;DHT22;27057;51.438;-0.010;2023-03-03T04:26:28;5.90;99.90
41310;DHT22;27057;51.438;-0.010;2023-03-03T04:28:59;5.40;99.90
41310;DHT22;27057;51.438;-0.010;2023-03-03T04:31:28;6.00;99.90
41310;DHT22;27057;51.438;-0.010;2023-03-03T04:33:56;6.10;99.90
41310;DHT22;27057;51.438;-0.010;2023-03-03T04:36:25;6.00;99.90
41310;DHT22;27057;51.438;-0.010;2023-03-03T04:38:53;6.00;99.90
41310;DHT22;27057;51.438;-0.010;2023-03-03T04:41:20;6.00;99.90
41310;DHT22;27057;51.438;-0.010;2023-03-03T04:46:16;6.00;99.90
41310;DHT22;27057;51.438;-0.010;2023-03-03T04:48:43;5.90;99.90
41310;DHT22;27057;51.438;-0.010;2023-03-03T04:51:12;6.00;99.90
41310;DHT22;27057;51.438;-0.010;2023-03-03T04:53:41;5.90;99.90
41310;DHT22;27057;51.438;-0.010;2023-03-03T04:56:09;5.90;99.90
41310;DHT22;27057;51.438;-0.010;2023-03-03T04:58:37;6.00;99.90
41310;DHT22;27057;51.438;-0.010;2023-03-03T05:01:05;5.80;99.90
41310;DHT22;27057;51.438;-0.010;2023-03-03T05:03:33;5.80;99.90
41310;DHT22;27057;51.438;-0.010;2023-03-03T05:06:01;5.90;99.90
41310;DHT22;27057;51.438;-0.010;2023-03-03T05:08:28;5.70;99.90
41310;DHT22;27057;51.438;-0.010;2023-03-03T05:10:56;5.90;99.90
41310;DHT22;27057;51.438;-0.010;2023-03-03T05:13:25;5.80;99.90
41310;DHT22;27057;51.438;-0.010;2023-03-03T05:15:54;5.90;99.90
41310;DHT22;27057;51.438;-0.010;2023-03-03T05:18:23;6.10;99.90
41310;DHT22;27057;51.438;-0.010;2023-03-03T05:23:19;6.10;99.90
41310;DHT22;27057;51.438;-0.010;2023-03-03T05:28:16;5.80;99.90
41310;DHT22;27057;51.438;-0.010;2023-03-03T05:30:43;5.80;99.90
41310;DHT22;27057;51.438;-0.010;2023-03-03T05:33:15;6.40;99.90
41310;DHT22;27057;51.438;-0.010;2023-03-03T05:35:43;5.70;99.90
41310;DHT22;27057;51.438;-0.010;2023-03-03T05:38:11;5.70;99.90
41310;DHT22;27057;51.438;-0.010;2023-03-03T05:40:39;6.60;99.90
41310;DHT22;27057;51.438;-0.010;2023-03-03T05:43:07;5.80;99.90
41310;DHT22;27057;51.438;-0.010;2023-03-03T05:45:34;5.60;99.90
41310;DHT22;27057;51.438;-0.010;2023-03-03T05:48:01;5.60;99.90
41310;DHT22;27057;51.438;-0.010;2023-03-03T05:50:31;5.80;99.90
41310;DHT22;27057;51.438;-0.010;2023-03-03T05:52:58;5.70;99.90
41310;DHT22;27057;51.438;-0.010;2023-03-03T05:55:26;5.90;99.90
41310;DHT22;27057;51.438;-0.010;2023-03-03T05:57:54;5.70;99.90
41310;DHT22;27057;51.438;-0.010;2023-03-03T06:00:21;6.10;99.90
41310;DHT22;27057;51.438;-0.010;2023-03-03T06:02:49;5.80;99.90
41310;DHT22;27057;51.438;-0.010;2023-03-03T06:05:16;5.70;99.90
41310;DHT22;27057;51.438;-0.010;2023-03-03T06:07:44;5.70;99.90
41310;DHT22;27057;51.438;-0.010;2023-03-03T06:10:12;5.80;99.90
41310;DHT22;27057;51.438;-0.010;2023-03-03T06:12:41;5.90;99.90
41310;DHT22;27057;51.438;-0.010;2023-03-03T06:15:09;5.70;99.90
41310;DHT22;27057;51.438;-0.010;2023-03-03T06:17:37;5.80;99.90
41310;DHT22;27057;51.438;-0.010;2023-03-03T06:20:05;5.80;99.90
41310;DHT22;27057;51.438;-0.010;2023-03-03T06:22:32;5.80;99.90
41310;DHT22;27057;51.438;-0.010;2023-03-03T06:25:00;5.80;99.90
41310;DHT22;27057;51.438;-0.010;2023-03-03T06:27:27;5.90;99.90
41310;DHT22;27057;51.438;-0.010;2023-03-03T06:29:55;5.90;99.90
41310;DHT22;27057;51.438;-0.010;2023-03-03T06:32:22;7.30;99.90
41310;DHT22;27057;51.438;-0.010;2023-03-03T06:37:17;5.70;99.90
41310;DHT22;27057;51.438;-0.010;2023-03-03T06:39:44;5.80;99.90
41310;DHT22;27057;51.438;-0.010;2023-03-03T06:42:12;5.70;99.90
41310;DHT22;27057;51.438;-0.010;2023-03-03T06:44:40;5.70;99.90
41310;DHT22;27057;51.438;-0.010;2023-03-03T06:47:07;5.90;99.90
41310;DHT22;27057;51.438;-0.010;2023-03-03T06:49:35;5.70;99.90
41310;DHT22;27057;51.438;-0.010;2023-03-03T06:52:27;5.60;99.90
41310;DHT22;27057;51.438;-0.010;2023-03-03T06:54:57;5.60;99.90
41310;DHT22;27057;51.438;-0.010;2023-03-03T06:57:27;6.40;99.90
41310;DHT22;27057;51.438;-0.010;2023-03-03T07:00:25;5.50;99.90
41310;DHT22;27057;51.438;-0.010;2023-03-03T07:03:01;5.70;99.90
41310;DHT22;27057;51.438;-0.010;2023-03-03T07:05:32;5.70;99.90
41310;DHT22;27057;51.438;-0.010;2023-03-03T07:08:00;5.70;99.90
41310;DHT22;27057;51.438;-0.010;2023-03-03T07:10:29;5.70;99.90
41310;DHT22;27057;51.438;-0.010;2023-03-03T07:13:07;5.90;99.90
41310;DHT22;27057;51.438;-0.010;2023-03-03T07:15:41;5.90;99.90
41310;DHT22;27057;51.438;-0.010;2023-03-03T07:18:46;5.80;99.90
41310;DHT22;27057;51.438;-0.010;2023-03-03T07:21:32;5.90;99.90
41310;DHT22;27057;51.438;-0.010;2023-03-03T07:24:29;5.80;99.90
41310;DHT22;27057;51.438;-0.010;2023-03-03T07:29:32;5.80;99.90
41310;DHT22;27057;51.438;-0.010;2023-03-03T07:32:01;5.60;99.90
41310;DHT22;27057;51.438;-0.010;2023-03-03T07:34:47;6.40;99.90
41310;DHT22;27057;51.438;-0.010;2023-03-03T07:37:25;5.80;99.90
41310;DHT22;27057;51.438;-0.010;2023-03-03T07:39:54;5.90;99.90
41310;DHT22;27057;51.438;-0.010;2023-03-03T07:42:40;5.90;99.90
41310;DHT22;27057;51.438;-0.010;2023-03-03T07:45:34;5.90;99.90
41310;DHT22;27057;51.438;-0.010;2023-03-03T07:48:25;6.00;99.90
41310;DHT22;27057;51.438;-0.010;2023-03-03T07:51:04;6.00;99.90
41310;DHT22;27057;51.438;-0.010;2023-03-03T07:53:34;6.10;99.90
41310;DHT22;27057;51.438;-0.010;2023-03-03T07:56:33;6.00;99.90
41310;DHT22;27057;51.438;-0.010;2023-03-03T07:59:22;6.10;99.90
41310;DHT22;27057;51.438;-0.010;2023-03-03T08:01:55;6.10;99.90
41310;DHT22;27057;51.438;-0.010;2023-03-03T08:04:37;7.00;99.90
41310;DHT22;27057;51.438;-0.010;2023-03-03T08:07:17;6.10;99.90
41310;DHT22;27057;51.438;-0.010;2023-03-03T08:09:58;6.00;99.90
41310;DHT22;27057;51.438;-0.010;2023-03-03T08:12:36;6.10;99.90
41310;DHT22;27057;51.438;-0.010;2023-03-03T08:15:23;6.20;99.90
41310;DHT22;27057;51.438;-0.010;2023-03-03T08:17:52;6.30;99.90
41310;DHT22;27057;51.438;-0.010;2023-03-03T08:23:00;6.40;99.90
41310;DHT22;27057;51.438;-0.010;2023-03-03T08:25:29;6.10;99.90
41310;DHT22;27057;51.438;-0.010;2023-03-03T08:27:56;6.20;99.90
41310;DHT22;27057;51.438;-0.010;2023-03-03T08:30:23;6.40;99.90
41310;DHT22;27057;51.438;-0.010;2023-03-03T08:32:52;6.30;99.90
41310;DHT22;27057;51.438;-0.010;2023-03-03T08:35:20;6.30;99.90
41310;DHT22;27057;51.438;-0.010;2023-03-03T08:37:47;8.60;99.90
41310;DHT22;27057;51.438;-0.010;2023-03-03T08:40:15;6.50;99.90
41310;DHT22;27057;51.438;-0.010;2023-03-03T08:42:42;6.70;99.90
41310;DHT22;27057;51.438;-0.010;2023-03-03T08:45:09;7.00;99.90
41310;DHT22;27057;51.438;-0.010;2023-03-03T08:50:06;6.90;99.90
41310;DHT22;27057;51.438;-0.010;2023-03-03T08:52:33;7.00;99.90
41310;DHT22;27057;51.438;-0.010;2023-03-03T08:55:01;6.10;99.90
41310;DHT22;27057;51.438;-0.010;2023-03-03T08:57:29;8.20;99.90
41310;DHT22;27057;51.438;-0.010;2023-03-03T08:59:56;7.30;99.90
41310;DHT22;27057;51.438;-0.010;2023-03-03T09:02:24;7.80;99.90
41310;DHT22;27057;51.438;-0.010;2023-03-03T09:07:19;7.60;99.90
41310;DHT22;27057;51.438;-0.010;2023-03-03T09:09:46;7.60;99.90
41310;DHT22;27057;51.438;-0.010;2023-03-03T09:12:17;7.70;99.90
41310;DHT22;27057;51.438;-0.010;2023-03-03T09:14:45;7.60;99.90
41310;DHT22;27057;51.438;-0.010;2023-03-03T09:17:34;7.70;99.90
41310;DHT22;27057;51.438;-0.010;2023-03-03T09:22:49;7.70;99.90
41310;DHT22;27057;51.438;-0.010;2023-03-03T09:25:26;7.80;99.90
41310;DHT22;27057;51.438;-0.010;2023-03-03T09:27:55;7.80;99.90
41310;DHT22;27057;51.438;-0.010;2023-03-03T09:30:36;8.10;99.90
41310;DHT22;27057;51.438;-0.010;2023-03-03T09:33:26;7.90;99.90
41310;DHT22;27057;51.438;-0.010;2023-03-03T09:36:29;8.10;99.90
41310;DHT22;27057;51.438;-0.010;2023-03-03T09:39:15;8.00;99.90
41310;DHT22;27057;51.438;-0.010;2023-03-03T09:50:00;8.00;99.90
41310;DHT22;27057;51.438;-0.010;2023-03-03T09:55:50;8.10;99.90
41310;DHT22;27057;51.438;-0.010;2023-03-03T10:01:37;8.20;99.90
41310;DHT22;27057;51.438;-0.010;2023-03-03T10:10:01;8.30;99.90
41310;DHT22;27057;51.438;-0.010;2023-03-03T10:12:59;8.30;99.90
41310;DHT22;27057;51.438;-0.010;2023-03-03T10:18:41;8.50;99.90
41310;DHT22;27057;51.438;-0.010;2023-03-03T10:21:35;8.10;99.90
41310;DHT22;27057;51.438;-0.010;2023-03-03T10:33:38;8.00;99.90
41310;DHT22;27057;51.438;-0.010;2023-03-03T10:44:25;7.90;99.90
41310;DHT22;27057;51.438;-0.010;2023-03-03T10:52:38;8.00;99.90
41310;DHT22;27057;51.438;-0.010;2023-03-03T10:55:39;8.10;99.90
41310;DHT22;27057;51.438;-0.010;2023-03-03T11:01:12;7.90;99.90
41310;DHT22;27057;51.438;-0.010;2023-03-03T11:04:01;8.10;99.90
41310;DHT22;27057;51.438;-0.010;2023-03-03T11:06:42;8.60;99.90
41310;DHT22;27057;51.438;-0.010;2023-03-03T11:11:55;8.50;99.90
41310;DHT22;27057;51.438;-0.010;2023-03-03T11:14:44;9.20;99.90
41310;DHT22;27057;51.438;-0.010;2023-03-03T11:31:30;8.60;99.90
41310;DHT22;27057;51.438;-0.010;2023-03-03T11:36:54;9.00;99.90
41310;DHT22;27057;51.438;-0.010;2023-03-03T11:39:24;9.10;99.90
41310;DHT22;27057;51.438;-0.010;2023-03-03T11:42:19;8.90;99.90
41310;DHT22;27057;51.438;-0.010;2023-03-03T11:44:59;9.00;99.90
41310;DHT22;27057;51.438;-0.010;2023-03-03T11:47:33;9.00;99.90
41310;DHT22;27057;51.438;-0.010;2023-03-03T11:50:24;8.90;99.90
41310;DHT22;27057;51.438;-0.010;2023-03-03T11:53:08;8.80;99.90
41310;DHT22;27057;51.438;-0.010;2023-03-03T11:55:41;8.90;99.90
41310;DHT22;27057;51.438;-0.010;2023-03-03T11:58:24;8.90;99.90
41310;DHT22;27057;51.438;-0.010;2023-03-03T12:01:14;9.10;99.90
41310;DHT22;27057;51.438;-0.010;2023-03-03T12:06:28;8.60;99.90
41310;DHT22;27057;51.438;-0.010;2023-03-03T12:09:15;8.70;99.90
41310;DHT22;27057;51.438;-0.010;2023-03-03T12:11:48;8.60;99.90
41310;DHT22;27057;51.438;-0.010;2023-03-03T12:20:24;8.50;99.90
41310;DHT22;27057;51.438;-0.010;2023-03-03T12:23:23;8.40;99.90
41310;DHT22;27057;51.438;-0.010;2023-03-03T12:26:03;8.30;99.90
41310;DHT22;27057;51.438;-0.010;2023-03-03T12:28:57;8.60;99.90
41310;DHT22;27057;51.438;-0.010;2023-03-03T12:31:44;8.20;99.90
41310;DHT22;27057;51.438;-0.010;2023-03-03T12:48:07;8.40;99.90
41310;DHT22;27057;51.438;-0.010;2023-03-03T12:56:29;8.50;99.90
41310;DHT22;27057;51.438;-0.010;2023-03-03T13:05:01;8.70;99.90
41310;DHT22;27057;51.438;-0.010;2023-03-03T13:07:42;8.60;99.90
41310;DHT22;27057;51.438;-0.010;2023-03-03T13:10:20;8.70;99.90
41310;DHT22;27057;51.438;-0.010;2023-03-03T13:12:58;8.90;99.90
41310;DHT22;27057;51.438;-0.010;2023-03-03T13:15:38;9.00;99.90
41310;DHT22;27057;51.438;-0.010;2023-03-03T13:18:49;9.50;99.90
41310;DHT22;27057;51.438;-0.010;2023-03-03T13:24:12;9.40;99.90
41310;DHT22;27057;51.438;-0.010;2023-03-03T13:26:52;9.10;99.90
41310;DHT22;27057;51.438;-0.010;2023-03-03T13:29:39;9.10;99.90
41310;DHT22;27057;51.438;-0.010;2023-03-03T13:32:13;8.90;99.90
41310;DHT22;27057;51.438;-0.010;2023-03-03T13:37:41;9.00;99.90
41310;DHT22;27057;51.438;-0.010;2023-03-03T13:40:23;9.10;99.90
41310;DHT22;27057;51.438;-0.010;2023-03-03T13:54:25;8.90;99.90
41310;DHT22;27057;51.438;-0.010;2023-03-03T13:57:26;9.20;99.90
41310;DHT22;27057;51.438;-0.010;2023-03-03T14:00:18;8.70;99.90
41310;DHT22;27057;51.438;-0.010;2023-03-03T14:05:29;8.80;99.90
41310;DHT22;27057;51.438;-0.010;2023-03-03T14:08:02;8.80;99.90
41310;DHT22;27057;51.438;-0.010;2023-03-03T14:14:21;8.60;99.90
41310;DHT22;27057;51.438;-0.010;2023-03-03T14:17:01;8.80;99.90
41310;DHT22;27057;51.438;-0.010;2023-03-03T14:19:55;8.70;99.90
41310;DHT22;27057;51.438;-0.010;2023-03-03T14:22:33;9.00;99.90
41310;DHT22;27057;51.438;-0.010;2023-03-03T14:25:12;8.60;99.90
41310;DHT22;27057;51.438;-0.010;2023-03-03T14:30:29;9.80;99.90
41310;DHT22;27057;51.438;-0.010;2023-03-03T14:35:33;8.80;99.90
41310;DHT22;27057;51.438;-0.010;2023-03-03T14:40:44;8.80;99.90
41310;DHT22;27057;51.438;-0.010;2023-03-03T14:43:32;9.10;99.90
41310;DHT22;27057;51.438;-0.010;2023-03-03T14:48:51;8.70;99.90
41310;DHT22;27057;51.438;-0.010;2023-03-03T14:53:50;8.80;99.90
41310;DHT22;27057;51.438;-0.010;2023-03-03T14:56:28;8.90;99.90
41310;DHT22;27057;51.438;-0.010;2023-03-03T14:59:16;8.70;99.90
41310;DHT22;27057;51.438;-0.010;2023-03-03T15:01:44;8.70;99.90
41310;DHT22;27057;51.438;-0.010;2023-03-03T15:06:45;8.40;99.90
41310;DHT22;27057;51.438;-0.010;2023-03-03T15:09:30;8.70;99.90
41310;DHT22;27057;51.438;-0.010;2023-03-03T15:12:18;9.00;99.90
41310;DHT22;27057;51.438;-0.010;2023-03-03T15:14:51;9.40;99.90
41310;DHT22;27057;51.438;-0.010;2023-03-03T15:20:31;8.10;99.90
41310;DHT22;27057;51.438;-0.010;2023-03-03T15:34:23;8.20;99.90
41310;DHT22;27057;51.438;-0.010;2023-03-03T15:45:31;8.60;99.90
41310;DHT22;27057;51.438;-0.010;2023-03-03T15:54:15;8.20;99.90
41310;DHT22;27057;51.438;-0.010;2023-03-03T15:56:55;8.20;99.90
41310;DHT22;27057;51.438;-0.010;2023-03-03T16:02:22;8.10;99.90
41310;DHT22;27057;51.438;-0.010;2023-03-03T16:04:58;8.20;99.90
41310;DHT22;27057;51.438;-0.010;2023-03-03T16:10:28;8.10;99.90
41310;DHT22;27057;51.438;-0.010;2023-03-03T16:13:22;8.10;99.90
41310;DHT22;27057;51.438;-0.010;2023-03-03T16:16:09;7.90;99.90
41310;DHT22;27057;51.438;-0.010;2023-03-03T16:18:54;8.00;99.90
41310;DHT22;27057;51.438;-0.010;2023-03-03T16:23:55;8.00;99.90
41310;DHT22;27057;51.438;-0.010;2023-03-03T16:32:10;8.00;99.90
41310;DHT22;27057;51.438;-0.010;2023-03-03T16:37:59;7.90;99.90
41310;DHT22;27057;51.438;-0.010;2023-03-03T16:40:54;8.10;99.90
41310;DHT22;27057;51.438;-0.010;2023-03-03T16:43:49;8.10;99.90
41310;DHT22;27057;51.438;-0.010;2023-03-03T16:46:34;7.90;99.90
41310;DHT22;27057;51.438;-0.010;2023-03-03T16:49:30;8.20;99.90
41310;DHT22;27057;51.438;-0.010;2023-03-03T16:52:07;7.80;99.90
41310;DHT22;27057;51.438;-0.010;2023-03-03T16:54:56;7.80;99.90
41310;DHT22;27057;51.438;-0.010;2023-03-03T17:00:06;7.80;99.90
41310;DHT22;27057;51.438;-0.010;2023-03-03T17:05:28;8.00;99.90
41310;DHT22;27057;51.438;-0.010;2023-03-03T17:08:11;7.80;99.90
41310;DHT22;27057;51.438;-0.010;2023-03-03T17:27:27;7.80;99.90
41310;DHT22;27057;51.438;-0.010;2023-03-03T17:30:20;7.50;99.90
41310;DHT22;27057;51.438;-0.010;2023-03-03T17:39:25;7.70;99.90
41310;DHT22;27057;51.438;-0.010;2023-03-03T17:42:11;7.60;99.90
41310;DHT22;27057;51.438;-0.010;2023-03-03T17:44:49;7.60;99.90
41310;DHT22;27057;51.438;-0.010;2023-03-03T17:54:09;7.80;99.90
41310;DHT22;27057;51.438;-0.010;2023-03-03T17:59:07;7.50;99.90
41310;DHT22;27057;51.438;-0.010;2023-03-03T18:01:56;7.60;99.90
41310;DHT22;27057;51.438;-0.010;2023-03-03T18:12:55;7.50;99.90
41310;DHT22;27057;51.438;-0.010;2023-03-03T18:21:26;7.50;99.90
41310;DHT22;27057;51.438;-0.010;2023-03-03T18:24:27;7.80;99.90
41310;DHT22;27057;51.438;-0.010;2023-03-03T18:27:33;7.90;99.90
41310;DHT22;27057;51.438;-0.010;2023-03-03T18:30:18;7.60;99.90
41310;DHT22;27057;51.438;-0.010;2023-03-03T18:35:32;7.70;99.90
41310;DHT22;27057;51.438;-0.010;2023-03-03T18:38:27;8.50;99.90
41310;DHT22;27057;51.438;-0.010;2023-03-03T18:40:59;7.50;99.90
41310;DHT22;27057;51.438;-0.010;2023-03-03T18:49:09;7.80;99.90
41310;DHT22;27057;51.438;-0.010;2023-03-03T19:02:32;7.50;99.90
41310;DHT22;27057;51.438;-0.010;2023-03-03T19:05:21;7.60;99.90
41310;DHT22;27057;51.438;-0.010;2023-03-03T19:08:41;7.60;99.90
41310;DHT22;27057;51.438;-0.010;2023-03-03T19:16:02;7.70;99.90
41310;DHT22;27057;51.438;-0.010;2023-03-03T19:19:16;7.90;99.90
41310;DHT22;27057;51.438;-0.010;2023-03-03T19:21:32;7.60;99.90
41310;DHT22;27057;51.438;-0.010;2023-03-03T19:24:24;7.60;99.90
41310;DHT22;27057;51.438;-0.010;2023-03-03T19:29:48;7.40;99.90
41310;DHT22;27057;51.438;-0.010;2023-03-03T19:38:32;7.50;99.90
41310;DHT22;27057;51.438;-0.010;2023-03-03T19:43:54;7.60;99.90
41310;DHT22;27057;51.438;-0.010;2023-03-03T19:49:20;7.60;99.90
41310;DHT22;27057;51.438;-0.010;2023-03-03T19:56:59;7.60;99.90
41310;DHT22;27057;51.438;-0.010;2023-03-03T19:59:48;7.60;99.90
41310;DHT22;27057;51.438;-0.010;2023-03-03T20:02:54;7.50;99.90
41310;DHT22;27057;51.438;-0.010;2023-03-03T20:08:30;7.30;99.90
41310;DHT22;27057;51.438;-0.010;2023-03-03T20:11:06;7.50;99.90
41310;DHT22;27057;51.438;-0.010;2023-03-03T20:13:46;7.40;99.90
41310;DHT22;27057;51.438;-0.010;2023-03-03T20:27:08;7.40;99.90
41310;DHT22;27057;51.438;-0.010;2023-03-03T20:40:09;8.50;99.90
41310;DHT22;27057;51.438;-0.010;2023-03-03T20:42:59;7.40;99.90
41310;DHT22;27057;51.438;-0.010;2023-03-03T20:45:42;7.40;99.90
41310;DHT22;27057;51.438;-0.010;2023-03-03T20:51:42;7.40;99.90
41310;DHT22;27057;51.438;-0.010;2023-03-03T20:54:46;7.40;99.90
41310;DHT22;27057;51.438;-0.010;2023-03-03T20:57:19;7.40;99.90
41310;DHT22;27057;51.438;-0.010;2023-03-03T21:00:02;7.30;99.90
41310;DHT22;27057;51.438;-0.010;2023-03-03T21:03:00;7.50;99.90
41310;DHT22;27057;51.438;-0.010;2023-03-03T21:05:29;7.40;99.90
41310;DHT22;27057;51.438;-0.010;2023-03-03T21:08:01;8.30;99.90
41310;DHT22;27057;51.438;-0.010;2023-03-03T21:10:36;7.50;99.90
41310;DHT22;27057;51.438;-0.010;2023-03-03T21:13:26;7.40;99.90
41310;DHT22;27057;51.438;-0.010;2023-03-03T21:16:02;7.20;99.90
41310;DHT22;27057;51.438;-0.010;2023-03-03T21:18:30;7.60;99.90
41310;DHT22;27057;51.438;-0.010;2023-03-03T21:20:58;7.70;99.90
41310;DHT22;27057;51.438;-0.010;2023-03-03T21:23:25;7.40;99.90
41310;DHT22;27057;51.438;-0.010;2023-03-03T21:25:54;7.40;99.90
41310;DHT22;27057;51.438;-0.010;2023-03-03T21:31:04;7.40;99.90
41310;DHT22;27057;51.438;-0.010;2023-03-03T21:36:10;7.40;99.90
41310;DHT22;27057;51.438;-0.010;2023-03-03T21:38:39;7.30;99.90
41310;DHT22;27057;51.438;-0.010;2023-03-03T21:41:07;7.00;99.90
41310;DHT22;27057;51.438;-0.010;2023-03-03T21:48:39;7.30;99.90
41310;DHT22;27057;51.438;-0.010;2023-03-03T21:51:09;7.60;99.90
41310;DHT22;27057;51.438;-0.010;2023-03-03T21:53:36;7.30;99.90
41310;DHT22;27057;51.438;-0.010;2023-03-03T21:56:04;7.40;99.90
41310;DHT22;27057;51.438;-0.010;2023-03-03T22:01:00;7.30;99.90
41310;DHT22;27057;51.438;-0.010;2023-03-03T22:03:27;7.90;99.90
41310;DHT22;27057;51.438;-0.010;2023-03-03T22:05:55;7.90;99.90
41310;DHT22;27057;51.438;-0.010;2023-03-03T22:08:22;7.40;99.90
41310;DHT22;27057;51.438;-0.010;2023-03-03T22:10:51;7.20;99.90
41310;DHT22;27057;51.438;-0.010;2023-03-03T22:13:26;7.20;99.90
41310;DHT22;27057;51.438;-0.010;2023-03-03T22:15:53;7.20;99.90
41310;DHT22;27057;51.438;-0.010;2023-03-03T22:18:21;7.50;99.90
41310;DHT22;27057;51.438;-0.010;2023-03-03T22:20:49;7.30;99.90
41310;DHT22;27057;51.438;-0.010;2023-03-03T22:23:16;7.20;99.90
41310;DHT22;27057;51.438;-0.010;2023-03-03T22:25:45;7.60;99.90
41310;DHT22;27057;51.438;-0.010;2023-03-03T22:28:12;7.20;99.90
41310;DHT22;27057;51.438;-0.010;2023-03-03T22:30:40;7.40;99.90